sensor_id;sensor_type;location;lat;lon;timestamp;pressure;altitude;pressure_sealevel;temperature;humidity
42859;BME280;28505;56.970;40.998;2023-05-07T00:00:39;100803.78;;;-2.65;100.00
42859;BME280;28505;56.970;40.998;2023-05-07T00:06:02;100808.25;;;-2.66;100.00
42859;BME280;28505;56.970;40.998;2023-05-07T00:11:24;100809.44;;;-2.68;100.00
42859;BME280;28505;56.970;40.998;2023-05-07T00:16:50;100809.19;;;-2.73;100.00
42859;BME280;28505;56.970;40.998;2023-05-07T00:22:12;100814.47;;;-2.73;100.00
42859;BME280;28505;56.970;40.998;2023-05-07T00:27:35;100813.38;;;-2.79;100.00
42859;BME280;28505;56.970;40.998;2023-05-07T00:32:57;100818.72;;;-2.72;100.00
42859;BME280;28505;56.970;40.998;2023-05-07T00:38:20;100827.00;;;-2.75;100.00
42859;BME280;28505;56.970;40.998;2023-05-07T00:43:45;100823.31;;;-2.81;100.00
42859;BME280;28505;56.970;40.998;2023-05-07T00:49:08;100820.59;;;-2.88;100.00
42859;BME280;28505;56.970;40.998;2023-05-07T00:54:30;100822.13;;;-2.93;100.00
42859;BME280;28505;56.970;40.998;2023-05-07T00:59:52;100818.41;;;-2.99;100.00
42859;BME280;28505;56.970;40.998;2023-05-07T01:05:17;100825.31;;;-2.98;100.00
42859;BME280;28505;56.970;40.998;2023-05-07T01:10:39;100829.31;;;-3.02;100.00
42859;BME280;28505;56.970;40.998;2023-05-07T01:16:04;100821.22;;;-3.00;100.00
42859;BME280;28505;56.970;40.998;2023-05-07T01:21:26;100826.69;;;-3.02;100.00
42859;BME280;28505;56.970;40.998;2023-05-07T01:26:56;100830.13;;;-3.01;100.00
42859;BME280;28505;56.970;40.998;2023-05-07T01:32:23;100833.59;;;-3.01;100.00
42859;BME280;28505;56.970;40.998;2023-05-07T01:37:49;100839.50;;;-2.99;100.00
42859;BME280;28505;56.970;40.998;2023-05-07T01:43:12;100838.66;;;-2.85;100.00
42859;BME280;28505;56.970;40.998;2023-05-07T01:48:35;100840.31;;;-2.84;100.00
42859;BME280;28505;56.970;40.998;2023-05-07T01:53:59;100843.41;;;-2.80;100.00
42859;BME280;28505;56.970;40.998;2023-05-07T01:59:22;100850.41;;;-2.72;100.00
42859;BME280;28505;56.970;40.998;2023-05-07T02:04:44;100849.88;;;-2.68;100.00
42859;BME280;28505;56.970;40.998;2023-05-07T02:10:08;100861.47;;;-2.62;100.00
42859;BME280;28505;56.970;40.998;2023-05-07T02:15:31;100861.56;;;-2.55;100.00
42859;BME280;28505;56.970;40.998;2023-05-07T02:20:55;100862.56;;;-2.42;100.00
42859;BME280;28505;56.970;40.998;2023-05-07T02:26:18;100874.09;;;-2.28;100.00
42859;BME280;28505;56.970;40.998;2023-05-07T02:31:40;100875.16;;;-2.22;100.00
42859;BME280;28505;56.970;40.998;2023-05-07T02:37:03;100872.91;;;-2.04;100.00
42859;BME280;28505;56.970;40.998;2023-05-07T02:42:26;100876.56;;;-1.83;100.00
42859;BME280;28505;56.970;40.998;2023-05-07T02:47:48;100892.41;;;-1.62;100.00
42859;BME280;28505;56.970;40.998;2023-05-07T02:53:11;100887.50;;;-1.44;100.00
42859;BME280;28505;56.970;40.998;2023-05-07T02:58:33;100892.13;;;-1.24;100.00
42859;BME280;28505;56.970;40.998;2023-05-07T03:03:57;100889.78;;;-1.06;100.00
42859;BME280;28505;56.970;40.998;2023-05-07T03:09:19;100885.22;;;-0.90;100.00
42859;BME280;28505;56.970;40.998;2023-05-07T03:14:41;100889.63;;;-0.63;100.00
42859;BME280;28505;56.970;40.998;2023-05-07T03:20:04;100896.69;;;-0.35;100.00
42859;BME280;28505;56.970;40.998;2023-05-07T03:25:27;100899.19;;;-0.07;100.00
42859;BME280;28505;56.970;40.998;2023-05-07T03:30:50;100906.66;;;0.51;100.00
42859;BME280;28505;56.970;40.998;2023-05-07T03:36:12;100906.38;;;1.19;100.00
42859;BME280;28505;56.970;40.998;2023-05-07T03:41:35;100914.69;;;2.25;100.00
42859;BME280;28505;56.970;40.998;2023-05-07T03:46:58;100916.22;;;2.46;100.00
42859;BME280;28505;56.970;40.998;2023-05-07T03:52:23;100922.09;;;3.42;100.00
42859;BME280;28505;56.970;40.998;2023-05-07T03:57:51;100912.34;;;4.14;100.00
42859;BME280;28505;56.970;40.998;2023-05-07T04:03:14;100927.72;;;5.31;93.87
42859;BME280;28505;56.970;40.998;2023-05-07T04:08:37;100928.97;;;5.29;84.35
42859;BME280;28505;56.970;40.998;2023-05-07T04:14:00;100933.59;;;6.71;70.06
42859;BME280;28505;56.970;40.998;2023-05-07T04:19:23;100932.84;;;7.70;64.55
42859;BME280;28505;56.970;40.998;2023-05-07T04:24:47;100941.94;;;11.22;59.54
42859;BME280;28505;56.970;40.998;2023-05-07T04:30:10;100933.38;;;10.69;55.02
42859;BME280;28505;56.970;40.998;2023-05-07T04:35:34;100939.03;;;10.68;52.42
42859;BME280;28505;56.970;40.998;2023-05-07T04:41:04;100930.91;;;10.88;51.61
42859;BME280;28505;56.970;40.998;2023-05-07T04:46:31;100934.19;;;10.95;50.62
42859;BME280;28505;56.970;40.998;2023-05-07T04:51:53;100937.03;;;11.40;48.70
42859;BME280;28505;56.970;40.998;2023-05-07T04:57:17;100954.84;;;9.50;50.62
42859;BME280;28505;56.970;40.998;2023-05-07T05:02:40;100961.03;;;9.46;50.84
42859;BME280;28505;56.970;40.998;2023-05-07T05:08:04;100956.28;;;10.41;50.28
42859;BME280;28505;56.970;40.998;2023-05-07T05:13:29;100955.13;;;9.06;52.73
42859;BME280;28505;56.970;40.998;2023-05-07T05:18:53;100946.72;;;9.98;49.22
42859;BME280;28505;56.970;40.998;2023-05-07T05:24:18;100945.72;;;11.27;47.98
42859;BME280;28505;56.970;40.998;2023-05-07T05:29:41;100958.13;;;8.24;53.95
42859;BME280;28505;56.970;40.998;2023-05-07T05:35:03;100964.63;;;10.75;51.44
42859;BME280;28505;56.970;40.998;2023-05-07T05:40:27;100964.31;;;9.58;51.61
42859;BME280;28505;56.970;40.998;2023-05-07T05:45:49;100950.69;;;9.27;50.04
42859;BME280;28505;56.970;40.998;2023-05-07T05:51:12;100970.59;;;9.26;51.57
42859;BME280;28505;56.970;40.998;2023-05-07T05:56:36;100959.78;;;9.16;52.91
42859;BME280;28505;56.970;40.998;2023-05-07T06:01:59;100955.28;;;9.84;47.41
42859;BME280;28505;56.970;40.998;2023-05-07T06:07:22;100968.91;;;5.94;54.71
42859;BME280;28505;56.970;40.998;2023-05-07T06:12:45;100978.06;;;5.98;57.16
42859;BME280;28505;56.970;40.998;2023-05-07T06:18:09;100967.94;;;8.08;52.00
42859;BME280;28505;56.970;40.998;2023-05-07T06:23:31;100963.09;;;6.26;54.88
42859;BME280;28505;56.970;40.998;2023-05-07T06:28:55;100980.31;;;4.84;58.07
42859;BME280;28505;56.970;40.998;2023-05-07T06:34:17;100984.81;;;5.13;59.72
42859;BME280;28505;56.970;40.998;2023-05-07T06:39:40;100976.13;;;6.22;60.19
42859;BME280;28505;56.970;40.998;2023-05-07T06:45:04;101001.06;;;6.11;57.10
42859;BME280;28505;56.970;40.998;2023-05-07T06:50:27;100990.03;;;8.64;52.99
42859;BME280;28505;56.970;40.998;2023-05-07T06:55:54;100989.47;;;10.67;46.57
42859;BME280;28505;56.970;40.998;2023-05-07T07:01:20;100977.56;;;11.35;44.46
42859;BME280;28505;56.970;40.998;2023-05-07T07:06:45;100972.25;;;12.44;41.44
42859;BME280;28505;56.970;40.998;2023-05-07T07:12:08;100976.22;;;8.33;46.17
42859;BME280;28505;56.970;40.998;2023-05-07T07:17:33;100985.97;;;6.96;47.59
42859;BME280;28505;56.970;40.998;2023-05-07T07:22:54;100995.34;;;5.79;51.45
42859;BME280;28505;56.970;40.998;2023-05-07T07:28:17;100997.75;;;5.69;52.57
42859;BME280;28505;56.970;40.998;2023-05-07T07:33:39;101007.16;;;5.95;51.48
42859;BME280;28505;56.970;40.998;2023-05-07T07:39:01;101022.22;;;5.60;51.79
42859;BME280;28505;56.970;40.998;2023-05-07T07:44:23;101021.31;;;6.19;51.67
42859;BME280;28505;56.970;40.998;2023-05-07T07:49:50;101009.38;;;7.00;49.74
42859;BME280;28505;56.970;40.998;2023-05-07T07:55:12;101016.38;;;9.31;49.77
42859;BME280;28505;56.970;40.998;2023-05-07T08:00:36;101006.41;;;10.37;47.43
42859;BME280;28505;56.970;40.998;2023-05-07T08:05:58;100996.47;;;11.19;42.18
42859;BME280;28505;56.970;40.998;2023-05-07T08:11:21;101001.38;;;8.71;44.55
42859;BME280;28505;56.970;40.998;2023-05-07T08:16:44;101001.56;;;7.33;47.81
42859;BME280;28505;56.970;40.998;2023-05-07T08:22:07;101002.75;;;10.06;44.67
42859;BME280;28505;56.970;40.998;2023-05-07T08:27:29;100999.97;;;10.69;43.61
42859;BME280;28505;56.970;40.998;2023-05-07T08:32:51;101004.28;;;9.34;43.75
42859;BME280;28505;56.970;40.998;2023-05-07T08:38:14;101000.78;;;8.64;44.96
42859;BME280;28505;56.970;40.998;2023-05-07T08:43:38;101005.41;;;9.96;44.20
42859;BME280;28505;56.970;40.998;2023-05-07T08:49:04;100992.66;;;10.49;42.95
42859;BME280;28505;56.970;40.998;2023-05-07T08:54:26;101002.88;;;9.69;43.97
42859;BME280;28505;56.970;40.998;2023-05-07T08:59:52;101013.47;;;9.91;44.16
42859;BME280;28505;56.970;40.998;2023-05-07T09:05:17;100997.03;;;9.87;45.63
42859;BME280;28505;56.970;40.998;2023-05-07T09:10:39;101002.97;;;9.42;45.93
42859;BME280;28505;56.970;40.998;2023-05-07T09:16:11;100995.94;;;9.83;45.69
42859;BME280;28505;56.970;40.998;2023-05-07T09:21:37;100999.66;;;8.92;46.18
42859;BME280;28505;56.970;40.998;2023-05-07T09:27:02;100996.16;;;9.76;45.37
42859;BME280;28505;56.970;40.998;2023-05-07T09:32:27;100988.22;;;10.02;43.63
42859;BME280;28505;56.970;40.998;2023-05-07T09:37:55;100989.03;;;8.21;46.23
42859;BME280;28505;56.970;40.998;2023-05-07T09:43:18;100998.75;;;7.61;47.98
42859;BME280;28505;56.970;40.998;2023-05-07T09:48:49;101004.34;;;6.70;50.07
42859;BME280;28505;56.970;40.998;2023-05-07T09:54:15;101021.00;;;7.23;51.06
42859;BME280;28505;56.970;40.998;2023-05-07T09:59:43;101031.97;;;7.77;51.94
42859;BME280;28505;56.970;40.998;2023-05-07T10:05:10;101024.31;;;8.08;52.77
42859;BME280;28505;56.970;40.998;2023-05-07T10:10:33;101024.78;;;7.61;53.73
42859;BME280;28505;56.970;40.998;2023-05-07T10:16:01;101009.44;;;8.71;49.60
42859;BME280;28505;56.970;40.998;2023-05-07T10:21:30;101008.44;;;8.82;50.16
42859;BME280;28505;56.970;40.998;2023-05-07T10:26:55;101015.63;;;8.44;51.72
42859;BME280;28505;56.970;40.998;2023-05-07T10:32:33;101010.09;;;7.85;52.90
42859;BME280;28505;56.970;40.998;2023-05-07T10:38:04;101004.41;;;8.53;52.71
42859;BME280;28505;56.970;40.998;2023-05-07T10:43:43;101003.00;;;8.23;51.61
42859;BME280;28505;56.970;40.998;2023-05-07T10:49:32;100997.00;;;9.82;49.75
42859;BME280;28505;56.970;40.998;2023-05-07T11:01:00;100995.66;;;7.91;45.82
42859;BME280;28505;56.970;40.998;2023-05-07T11:06:34;101005.06;;;7.72;45.03
42859;BME280;28505;56.970;40.998;2023-05-07T11:12:01;100998.59;;;8.12;44.48
42859;BME280;28505;56.970;40.998;2023-05-07T11:17:55;100989.28;;;8.47;46.69
42859;BME280;28505;56.970;40.998;2023-05-07T11:29:21;101013.13;;;7.72;48.73
42859;BME280;28505;56.970;40.998;2023-05-07T11:34:55;101004.28;;;7.55;48.37
42859;BME280;28505;56.970;40.998;2023-05-07T11:40:18;101001.50;;;8.10;47.51
42859;BME280;28505;56.970;40.998;2023-05-07T11:45:40;101011.69;;;7.86;47.64
42859;BME280;28505;56.970;40.998;2023-05-07T11:51:04;101008.53;;;7.50;47.50
42859;BME280;28505;56.970;40.998;2023-05-07T11:56:26;101020.59;;;7.70;44.87
42859;BME280;28505;56.970;40.998;2023-05-07T12:01:48;101025.03;;;7.59;46.16
42859;BME280;28505;56.970;40.998;2023-05-07T12:07:15;101031.06;;;7.49;46.16
42859;BME280;28505;56.970;40.998;2023-05-07T12:12:40;101029.44;;;7.15;47.32
42859;BME280;28505;56.970;40.998;2023-05-07T12:18:03;101031.47;;;8.46;44.78
42859;BME280;28505;56.970;40.998;2023-05-07T12:23:25;101009.66;;;8.20;44.06
42859;BME280;28505;56.970;40.998;2023-05-07T12:28:48;101025.75;;;8.37;43.70
42859;BME280;28505;56.970;40.998;2023-05-07T12:34:12;101025.50;;;9.30;43.44
42859;BME280;28505;56.970;40.998;2023-05-07T12:39:35;101023.84;;;9.24;41.91
42859;BME280;28505;56.970;40.998;2023-05-07T12:44:57;101018.06;;;9.43;43.02
42859;BME280;28505;56.970;40.998;2023-05-07T12:50:19;101018.69;;;9.55;42.55
42859;BME280;28505;56.970;40.998;2023-05-07T12:55:51;101011.50;;;9.28;42.26
42859;BME280;28505;56.970;40.998;2023-05-07T13:01:13;101039.56;;;8.24;44.41
42859;BME280;28505;56.970;40.998;2023-05-07T13:06:37;101045.81;;;8.08;45.50
42859;BME280;28505;56.970;40.998;2023-05-07T13:12:02;101040.78;;;7.94;46.04
42859;BME280;28505;56.970;40.998;2023-05-07T13:17:24;101038.91;;;8.17;47.09
42859;BME280;28505;56.970;40.998;2023-05-07T13:22:46;101039.16;;;7.93;46.78
42859;BME280;28505;56.970;40.998;2023-05-07T13:28:07;101045.69;;;8.41;45.14
42859;BME280;28505;56.970;40.998;2023-05-07T13:33:31;101031.19;;;8.42;43.84
42859;BME280;28505;56.970;40.998;2023-05-07T13:38:53;101029.88;;;8.72;45.63
42859;BME280;28505;56.970;40.998;2023-05-07T13:44:16;101035.91;;;8.35;43.67
42859;BME280;28505;56.970;40.998;2023-05-07T13:49:39;101038.84;;;8.56;43.55
42859;BME280;28505;56.970;40.998;2023-05-07T13:55:01;101043.47;;;8.60;44.91
42859;BME280;28505;56.970;40.998;2023-05-07T14:00:24;101048.75;;;8.50;44.58
42859;BME280;28505;56.970;40.998;2023-05-07T14:05:47;101043.41;;;8.33;45.62
42859;BME280;28505;56.970;40.998;2023-05-07T14:11:10;101046.22;;;8.00;46.42
42859;BME280;28505;56.970;40.998;2023-05-07T14:16:32;101053.41;;;8.16;46.74
42859;BME280;28505;56.970;40.998;2023-05-07T14:21:54;101042.28;;;7.85;46.70
42859;BME280;28505;56.970;40.998;2023-05-07T14:27:19;101050.22;;;7.75;47.10
42859;BME280;28505;56.970;40.998;2023-05-07T14:32:41;101049.47;;;7.80;47.12
42859;BME280;28505;56.970;40.998;2023-05-07T14:38:04;101043.97;;;8.13;46.63
42859;BME280;28505;56.970;40.998;2023-05-07T14:43:26;101046.00;;;8.45;46.92
42859;BME280;28505;56.970;40.998;2023-05-07T14:48:48;101038.75;;;8.73;45.33
42859;BME280;28505;56.970;40.998;2023-05-07T14:54:11;101045.78;;;8.79;45.65
42859;BME280;28505;56.970;40.998;2023-05-07T14:59:33;101055.28;;;8.37;44.24
42859;BME280;28505;56.970;40.998;2023-05-07T15:04:55;101061.81;;;8.41;45.49
42859;BME280;28505;56.970;40.998;2023-05-07T15:10:17;101059.16;;;8.47;45.46
42859;BME280;28505;56.970;40.998;2023-05-07T15:15:39;101059.75;;;8.49;45.55
42859;BME280;28505;56.970;40.998;2023-05-07T15:21:01;101066.94;;;8.04;46.43
42859;BME280;28505;56.970;40.998;2023-05-07T15:26:25;101059.97;;;8.25;46.51
42859;BME280;28505;56.970;40.998;2023-05-07T15:31:47;101061.25;;;8.39;46.36
42859;BME280;28505;56.970;40.998;2023-05-07T15:37:09;101067.84;;;8.10;47.48
42859;BME280;28505;56.970;40.998;2023-05-07T15:42:31;101074.50;;;8.07;47.08
42859;BME280;28505;56.970;40.998;2023-05-07T15:47:53;101072.06;;;7.84;48.03
42859;BME280;28505;56.970;40.998;2023-05-07T15:53:16;101081.56;;;7.53;48.28
42859;BME280;28505;56.970;40.998;2023-05-07T15:58:38;101087.09;;;7.46;48.34
42859;BME280;28505;56.970;40.998;2023-05-07T16:04:01;101086.91;;;7.19;50.08
42859;BME280;28505;56.970;40.998;2023-05-07T16:09:23;101093.75;;;7.10;50.03
42859;BME280;28505;56.970;40.998;2023-05-07T16:14:48;101100.56;;;6.72;51.97
42859;BME280;28505;56.970;40.998;2023-05-07T16:20:12;101100.06;;;6.46;52.67
42859;BME280;28505;56.970;40.998;2023-05-07T16:25:35;101109.41;;;6.32;52.91
42859;BME280;28505;56.970;40.998;2023-05-07T16:30:57;101112.91;;;6.21;53.64
42859;BME280;28505;56.970;40.998;2023-05-07T16:36:22;101121.88;;;6.15;54.64
42859;BME280;28505;56.970;40.998;2023-05-07T16:41:44;101132.97;;;5.95;55.10
42859;BME280;28505;56.970;40.998;2023-05-07T16:47:09;101134.56;;;5.60;54.96
42859;BME280;28505;56.970;40.998;2023-05-07T16:52:31;101130.31;;;5.18;57.63
42859;BME280;28505;56.970;40.998;2023-05-07T16:57:54;101126.38;;;4.90;56.64
42859;BME280;28505;56.970;40.998;2023-05-07T17:03:18;101136.91;;;4.55;58.52
42859;BME280;28505;56.970;40.998;2023-05-07T17:08:42;101143.00;;;4.25;58.82
42859;BME280;28505;56.970;40.998;2023-05-07T17:14:05;101146.22;;;3.90;59.58
42859;BME280;28505;56.970;40.998;2023-05-07T17:19:27;101148.56;;;3.55;62.88
42859;BME280;28505;56.970;40.998;2023-05-07T17:24:49;101152.09;;;3.24;63.30
42859;BME280;28505;56.970;40.998;2023-05-07T17:30:11;101159.72;;;2.75;73.27
42859;BME280;28505;56.970;40.998;2023-05-07T17:35:34;101161.22;;;2.58;73.92
42859;BME280;28505;56.970;40.998;2023-05-07T17:40:57;101167.88;;;2.36;73.29
42859;BME280;28505;56.970;40.998;2023-05-07T17:46:19;101170.13;;;2.19;74.39
42859;BME280;28505;56.970;40.998;2023-05-07T17:51:41;101167.72;;;1.97;75.91
42859;BME280;28505;56.970;40.998;2023-05-07T17:57:15;101166.31;;;1.68;89.15
42859;BME280;28505;56.970;40.998;2023-05-07T18:02:41;101163.25;;;1.45;91.85
42859;BME280;28505;56.970;40.998;2023-05-07T18:08:04;101173.22;;;1.29;100.00
42859;BME280;28505;56.970;40.998;2023-05-07T18:13:26;101170.56;;;1.16;95.54
42859;BME280;28505;56.970;40.998;2023-05-07T18:18:48;101183.56;;;0.98;99.46
42859;BME280;28505;56.970;40.998;2023-05-07T18:24:10;101189.97;;;0.62;100.00
42859;BME280;28505;56.970;40.998;2023-05-07T18:29:32;101187.41;;;0.40;100.00
42859;BME280;28505;56.970;40.998;2023-05-07T18:34:54;101192.09;;;0.38;100.00
42859;BME280;28505;56.970;40.998;2023-05-07T18:40:16;101192.97;;;0.11;100.00
42859;BME280;28505;56.970;40.998;2023-05-07T18:45:38;101192.63;;;0.20;100.00
42859;BME280;28505;56.970;40.998;2023-05-07T18:51:02;101190.84;;;0.34;100.00
42859;BME280;28505;56.970;40.998;2023-05-07T18:56:24;101195.56;;;0.39;100.00
42859;BME280;28505;56.970;40.998;2023-05-07T19:01:46;101196.41;;;0.39;100.00
42859;BME280;28505;56.970;40.998;2023-05-07T19:07:08;101194.06;;;0.23;100.00
42859;BME280;28505;56.970;40.998;2023-05-07T19:12:30;101199.13;;;0.18;100.00
42859;BME280;28505;56.970;40.998;2023-05-07T19:17:52;101205.16;;;0.05;100.00
42859;BME280;28505;56.970;40.998;2023-05-07T19:23:15;101208.19;;;0.02;100.00
42859;BME280;28505;56.970;40.998;2023-05-07T19:28:38;101206.63;;;-0.14;100.00
42859;BME280;28505;56.970;40.998;2023-05-07T19:34:08;101207.78;;;-0.23;100.00
42859;BME280;28505;56.970;40.998;2023-05-07T19:39:30;101218.47;;;-0.38;100.00
42859;BME280;28505;56.970;40.998;2023-05-07T19:44:52;101225.34;;;-0.43;100.00
42859;BME280;28505;56.970;40.998;2023-05-07T19:50:15;101225.78;;;-0.61;100.00
42859;BME280;28505;56.970;40.998;2023-05-07T19:55:37;101224.75;;;-0.82;100.00
42859;BME280;28505;56.970;40.998;2023-05-07T20:01:00;101233.38;;;-0.95;100.00
42859;BME280;28505;56.970;40.998;2023-05-07T20:06:22;101238.38;;;-1.00;100.00
42859;BME280;28505;56.970;40.998;2023-05-07T20:11:44;101231.38;;;-1.22;100.00
42859;BME280;28505;56.970;40.998;2023-05-07T20:17:06;101238.50;;;-1.37;100.00
42859;BME280;28505;56.970;40.998;2023-05-07T20:22:29;101251.75;;;-1.23;100.00
42859;BME280;28505;56.970;40.998;2023-05-07T20:27:52;101251.66;;;-1.29;100.00
42859;BME280;28505;56.970;40.998;2023-05-07T20:33:14;101267.81;;;-1.39;100.00
42859;BME280;28505;56.970;40.998;2023-05-07T20:38:37;101268.88;;;-1.48;100.00
42859;BME280;28505;56.970;40.998;2023-05-07T20:43:59;101272.25;;;-1.54;100.00
42859;BME280;28505;56.970;40.998;2023-05-07T20:49:21;101272.44;;;-1.56;100.00
42859;BME280;28505;56.970;40.998;2023-05-07T20:54:44;101285.03;;;-1.58;100.00
42859;BME280;28505;56.970;40.998;2023-05-07T21:00:08;101283.47;;;-1.37;100.00
42859;BME280;28505;56.970;40.998;2023-05-07T21:05:31;101286.94;;;-1.22;100.00
42859;BME280;28505;56.970;40.998;2023-05-07T21:10:59;101297.16;;;-1.19;100.00
42859;BME280;28505;56.970;40.998;2023-05-07T21:16:22;101295.34;;;-1.04;100.00
42859;BME280;28505;56.970;40.998;2023-05-07T21:21:44;101298.97;;;-1.05;100.00
42859;BME280;28505;56.970;40.998;2023-05-07T21:27:06;101300.47;;;-1.17;100.00
42859;BME280;28505;56.970;40.998;2023-05-07T21:32:29;101308.75;;;-1.35;100.00
42859;BME280;28505;56.970;40.998;2023-05-07T21:37:51;101303.97;;;-1.69;100.00
42859;BME280;28505;56.970;40.998;2023-05-07T21:43:13;101308.75;;;-1.88;100.00
42859;BME280;28505;56.970;40.998;2023-05-07T21:48:35;101318.16;;;-1.85;100.00
42859;BME280;28505;56.970;40.998;2023-05-07T21:53:58;101320.69;;;-1.92;100.00
42859;BME280;28505;56.970;40.998;2023-05-07T21:59:21;101322.44;;;-2.07;100.00
42859;BME280;28505;56.970;40.998;2023-05-07T22:04:43;101326.13;;;-2.16;100.00
42859;BME280;28505;56.970;40.998;2023-05-07T22:10:06;101341.41;;;-2.26;100.00
42859;BME280;28505;56.970;40.998;2023-05-07T22:15:29;101326.31;;;-2.41;100.00
42859;BME280;28505;56.970;40.998;2023-05-07T22:20:57;101330.31;;;-2.45;100.00
42859;BME280;28505;56.970;40.998;2023-05-07T22:26:19;101335.00;;;-2.55;100.00
42859;BME280;28505;56.970;40.998;2023-05-07T22:31:43;101328.78;;;-2.70;100.00
42859;BME280;28505;56.970;40.998;2023-05-07T22:37:06;101328.91;;;-2.64;100.00
42859;BME280;28505;56.970;40.998;2023-05-07T22:42:28;101334.41;;;-2.73;100.00
42859;BME280;28505;56.970;40.998;2023-05-07T22:47:50;101345.78;;;-2.73;100.00
42859;BME280;28505;56.970;40.998;2023-05-07T22:53:13;101355.19;;;-2.78;100.00
42859;BME280;28505;56.970;40.998;2023-05-07T22:58:35;101347.16;;;-2.85;100.00
42859;BME280;28505;56.970;40.998;2023-05-07T23:03:57;101350.97;;;-2.88;100.00
42859;BME280;28505;56.970;40.998;2023-05-07T23:09:19;101351.13;;;-2.89;100.00
42859;BME280;28505;56.970;40.998;2023-05-07T23:14:41;101351.66;;;-2.94;100.00
42859;BME280;28505;56.970;40.998;2023-05-07T23:20:04;101355.13;;;-3.01;100.00
42859;BME280;28505;56.970;40.998;2023-05-07T23:25:26;101354.81;;;-3.07;100.00
42859;BME280;28505;56.970;40.998;2023-05-07T23:30:50;101357.28;;;-3.05;100.00
42859;BME280;28505;56.970;40.998;2023-05-07T23:36:12;101354.19;;;-3.17;100.00
42859;BME280;28505;56.970;40.998;2023-05-07T23:41:34;101353.00;;;-3.14;100.00
42859;BME280;28505;56.970;40.998;2023-05-07T23:46:57;101360.59;;;-3.11;100.00
42859;BME280;28505;56.970;40.998;2023-05-07T23:52:19;101365.56;;;-3.16;100.00
42859;BME280;28505;56.970;40.998;2023-05-07T23:57:41;101370.84;;;-3.24;100.00
